Погода Куанибна 2 недели

Республика Дагестан, Россия

14 - 27 июля
  • 14июля
    Сегодня
    +9°
    +23°
    Ясно и безоблачно
    ВремяПогодаТемператураВлажностьДавлениеВетер, м/сВероятность осадков
    00:00Практически безоблачно+11°C90 %626 мм1.2 м/с7 %
    03:00Небольшая облачность+11°C94 %626 мм1.6 м/с10 %
    06:00Ясно и безоблачно+13°C87 %627 мм1.8 м/с11 %
    09:00Ясно и безоблачно+18°C51 %629 мм1.0 м/с6 %
    12:00Ясно и безоблачно+21°C37 %629 мм1.5 м/с7 %
    15:00Ясно и безоблачно+23°C36 %630 мм2.6 м/с5 %
    18:00Ясно и безоблачно+19°C51 %629 мм0.8 м/с3 %
    21:00Ясно и безоблачно+14°C56 %628 мм0.6 м/с2 %
  • 15июля
    Понедельник
    +12°
    +23°
    Небольшая облачность
    ВремяПогодаТемператураВлажностьДавлениеВетер, м/сВероятность осадков
    00:00Ясно и безоблачно+11°C76 %627 мм0.7 м/с2 %
    03:00Ясно и безоблачно+11°C79 %627 мм1.0 м/с2 %
    06:00Ясно и безоблачно+12°C78 %628 мм1.2 м/с2 %
    09:00Ясно и безоблачно+18°C47 %630 мм1.1 м/с2 %
    12:00Ясно и безоблачно+21°C37 %631 мм1.7 м/с2 %
    15:00Небольшая облачность+23°C41 %631 мм1.8 м/с2 %
    18:00Небольшая облачность+21°C58 %630 мм1.3 м/с2 %
    21:00Ясно и безоблачно+16°C71 %630 мм0.7 м/с2 %
  • 16июля
    Вторник
    +13°
    +24°
    Небольшая облачность
    ВремяПогодаТемператураВлажностьДавлениеВетер, м/сВероятность осадков
    00:00Ясно и безоблачно+14°C88 %629 мм1.1 м/с2 %
    03:00Ясно и безоблачно+14°C90 %628 мм1.5 м/с2 %
    06:00Ясно и безоблачно+15°C81 %629 мм1.5 м/с2 %
    09:00Ясно и безоблачно+20°C52 %631 мм0.8 м/с2 %
    12:00Практически безоблачно+23°C41 %632 мм1.9 м/с3 %
    15:00Небольшая облачность+24°C40 %631 мм2.5 м/с7 %
    18:00Практически безоблачно+22°C57 %631 мм1.4 м/с7 %
    21:00Ясно и безоблачно+17°C73 %631 мм0.3 м/с4 %
  • 17июля
    Среда
    +13°
    +25°
    Облачно с прояснениями
    ВремяПогодаТемператураВлажностьДавлениеВетер, м/сВероятность осадков
    00:00Ясно и безоблачно+15°C88 %630 мм0.9 м/с2 %
    03:00Ясно и безоблачно+14°C91 %629 мм1.3 м/с2 %
    06:00Ясно и безоблачно+16°C81 %630 мм1.6 м/с2 %
    09:00Практически безоблачно+21°C51 %632 мм0.5 м/с2 %
    12:00Практически безоблачно+23°C42 %632 мм1.7 м/с12 %
    15:00Облачно с прояснениями+25°C38 %632 мм2.4 м/с22 %
    18:00Практически безоблачно+21°C57 %631 мм1.2 м/с18 %
    21:00Ясно и безоблачно+17°C62 %631 мм0.2 м/с2 %
  • 18июля
    Четверг
    +13°
    +25°
    Ясно и безоблачно
    ВремяПогодаТемператураВлажностьДавлениеВетер, м/сВероятность осадков
    00:00Практически безоблачно+15°C80 %630 мм0.9 м/с2 %
    03:00Небольшая облачность+15°C83 %630 мм1.1 м/с2 %
    06:00Ясно и безоблачно+16°C77 %630 мм1.8 м/с5 %
    09:00Ясно и безоблачно+20°C49 %631 мм1.0 м/с24 %
    12:00Ясно и безоблачно+23°C39 %631 мм2.1 м/с41 %
    15:00Ясно и безоблачно+24°C37 %631 мм2.8 м/с44 %
    18:00Ясно и безоблачно+20°C52 %630 мм1.2 м/с35 %
    21:00Ясно и безоблачно+16°C72 %630 мм0.5 м/с11 %
Мы используем cookies
Соглашаюсь